Terminal Aerodrome Forecast
Issued by NWS Melbourne, FL

Home | Current Version | Previous Version | Text Only | Print | Product List | Glossary On
Versions: 1 2 3 4 5 6 7 8 9 10 11 12 13 14 15 16 17 18 19
059
FTUS42 KMLB 271249 AAA
TAFVRB
TAF AMD
KVRB 271249Z 2713/2812 10011KT P6SM VCSH BKN035
     FM272100 12012G19KT P6SM SCT035
     FM280100 12008KT P6SM FEW035
     FM280800 11005KT P6SM SCT015=

USA.gov is the U.S. government's official web portal to all federal, state and local government web resources and services.